Terminal Aerodrome Forecast
Issued by NWS

Current Version | Previous Version | Text Only | Print | Product List | Glossary On
Versions: 1 2 3 4 5 6 7 8 9 10 11 12 13 14 15 16 17 18 19 20
000
FTUS43 KDLH 240534
TAFBRD
TAF
KBRD 240534Z 2406/2506 19008KT P6SM SKC WS020/24040KT
     FM241300 24009KT P6SM SCT060 BKN120 WS020/25040KT
     FM241900 26013G20KT P6SM SCT030 SCT080
     FM250000 30012G18KT P6SM BKN080=

USA.gov is the U.S. government's official web portal to all federal, state and local government web resources and services.